INFORMACIÓN METAR y TAF
METAR FOR GCHI
ADDS - METARS form results

(1608 UTC 30 May 2020)
Data provider http://aviationweather.gov/metar/data/
 
METAR text: GCHI 301600Z 36009KT 330V030 9999 FEW020 SCT045 23/17 Q1013
Conditions at: GCHI (HIERRO AIRPORT , ES) observed 1600 UTC 30 May 2020
Temperature: 23.0°C (73°F)
Dewpoint: 17.0°C (63°F) [RH = 69%]
Pressure (altimeter): 29.91 inches Hg (1013.0 mb)
Winds: from the N (360 degrees) at 10 MPH (9 knots; 4.6 m/s)
Visibility: 6 or more miles (10+ km)
Ceiling: at least 12,000 feet AGL
Clouds: few clouds at 2000 feet AGL
scattered clouds at 4500 feet AGL
Weather: no significant weather observed at this time

METAR text: GCHI 301530Z 36008KT 330V030 9999 FEW022 SCT040 23/17 Q1014
Conditions at: GCHI (HIERRO AIRPORT , ES) observed 1530 UTC 30 May 2020
Temperature: 23.0°C (73°F)
Dewpoint: 17.0°C (63°F) [RH = 69%]
Pressure (altimeter): 29.94 inches Hg (1014.0 mb)
Winds: from the N (360 degrees) at 9 MPH (8 knots; 4.1 m/s)
Visibility: 6 or more miles (10+ km)
Ceiling: at least 12,000 feet AGL
Clouds: few clouds at 2200 feet AGL
scattered clouds at 4000 feet AGL
Weather: no significant weather observed at this time

Forecast for: GCHI (HIERRO AIRPORT , ES)
Text: TAF GCHI 301400Z 3015/3115 35012KT 9999 SCT030 TX23/3114Z TN20/3106Z
Forecast period: 1500 UTC 30 May 2020 to 1500 UTC 31 May 2020
Forecast type: FROM: standard forecast or significant change
Winds: from the N (350 degrees) at 14 MPH (12 knots; 6.2 m/s)
Visibility: 6 or more miles 10+ km)
Ceiling: at least 12,000 feet AGL
Clouds: scattered clouds at 3000 feet AGL
Weather: no significant weather forecast for this period
Text: PROB30
Forecast period: 1800 UTC 30 May 2020 to 0900 UTC 31 May 2020
Forecast type: TEMPORARY: The following changes expected for less than half the time period
Visibility: missing
Ceiling: 1400 feet AGL
Clouds: broken clouds at 1400 feet AGL
Weather: DZ RA  (moderate drizzle, moderate rain)

 MAPA DE AEROPUERTO

 INFORMACIÓN DE PISTA
Pista 16 Longitud 4101 ft Ancho 98 ft
Elevación 71 ft Umbral desplazado 0 ft Rumbo de pista 153
Pista 34 Longitud 4101 ft Ancho 98 ft
Elevación 103 ft Umbral desplazado 0 ft Rumbo de pista 333

 FRECUANCIAS DEL AEROPUERTO
Tipo A/D Nombre CANARIAS A Frecuencia 126.1 MHZ
Tipo GND Nombre GND Frecuencia 121.6 MHZ
Tipo TWR Nombre TWR Frecuencia 118.1 MHZ

 RADIO AYUDAS DEL AEROPUERTO
Tipo NDB Nombre Hierro Frecuencia 376 KHZ
Tipo DME Nombre Hierro Frecuencia 113200 KHZ



Powered by Virtual Airlines Manager [v2.6.2]